Terminal Aerodrome Forecast
Issued by NWS

Home | Current Version | Previous Version | Text Only | Print | Product List | Glossary On
Versions: 1 2 3 4 5 6 7 8 9 10 11 12 13 14 15 16 17 18 19 20 21
000
FTUS44 KBMX 190540
TAFMGM
TAF
KMGM 190540Z 1906/2006 00000KT P6SM SCT050
     FM190900 VRB02KT 3SM BR BKN007 OVC050
      TEMPO 1910/1914 1SM BR OVC003
     FM191600 16006KT P6SM VCSH OVC015
     FM191800 18009KT 5SM -RA VCTS BKN025CB OVC050=

USA.gov is the U.S. government's official web portal to all federal, state and local government web resources and services.